createdAt,value
2022-08-05T00:02:15.389Z,3.45
2022-08-05T00:04:55.253Z,2.45
2022-08-05T00:07:59.023Z,2.95
2022-08-05T00:10:17.120Z,3.03
2022-08-05T00:12:48.513Z,2.50
2022-08-05T00:15:56.201Z,3.72
2022-08-05T00:18:27.123Z,3.42
2022-08-05T00:20:58.528Z,2.60
2022-08-05T00:23:45.768Z,3.05
2022-08-05T00:26:26.469Z,3.80
2022-08-05T00:28:53.471Z,3.17
2022-08-05T00:31:54.066Z,4.18
2022-08-05T00:34:54.890Z,3.92
2022-08-05T00:39:59.515Z,2.47
2022-08-05T00:42:32.540Z,2.33
2022-08-05T00:45:08.507Z,2.63
2022-08-05T00:47:57.214Z,3.17
2022-08-05T00:50:29.272Z,2.13
2022-08-05T00:52:58.553Z,2.90
2022-08-05T00:55:42.413Z,2.40
2022-08-05T00:58:19.898Z,2.80
2022-08-05T01:00:57.536Z,1.83
2022-08-05T01:06:33.315Z,2.80
2022-08-05T01:09:03.077Z,1.70
2022-08-05T01:11:45.211Z,4.45
2022-08-05T01:14:28.144Z,3.92
2022-08-05T01:17:47.198Z,3.37
2022-08-05T01:20:40.942Z,5.03
2022-08-05T05:25:40.795Z,11.52
2022-08-05T05:34:53.024Z,18.50
2022-08-05T05:37:20.930Z,16.42
2022-08-05T05:43:57.450Z,17.00
2022-08-05T05:46:38.021Z,16.95
2022-08-05T05:58:40.324Z,19.70
2022-08-05T06:01:13.050Z,19.15
2022-08-05T06:03:54.008Z,18.60
2022-08-05T06:06:57.865Z,18.50
2022-08-05T06:10:01.514Z,18.10
2022-08-05T06:12:34.018Z,18.80
2022-08-05T06:15:24.017Z,17.45
2022-08-05T06:17:54.918Z,16.83
2022-08-05T06:20:24.414Z,16.48
2022-08-05T06:23:04.155Z,19.10
2022-08-05T06:26:12.746Z,16.35
2022-08-05T06:28:48.321Z,19.70
2022-08-05T06:31:30.570Z,15.90
2022-08-05T06:34:09.564Z,16.42
2022-08-05T06:36:55.314Z,17.63
2022-08-05T06:39:35.077Z,16.58
2022-08-05T06:42:56.711Z,15.63
2022-08-05T06:45:45.055Z,14.85
2022-08-05T06:48:55.750Z,18.63
2022-08-05T06:51:36.412Z,15.00
2022-08-05T06:54:19.048Z,17.23
2022-08-05T06:57:56.955Z,23.98
2022-08-05T06:59:48.501Z,16.92
2022-08-05T07:02:38.790Z,14.20
2022-08-05T07:07:51.346Z,11.35
2022-08-05T07:11:01.913Z,11.75
2022-08-05T07:13:57.568Z,9.85
2022-08-05T07:17:58.405Z,8.25
2022-08-05T07:22:48.371Z,8.60
2022-08-05T07:25:55.016Z,6.78
2022-08-05T07:28:36.276Z,9.40
2022-08-05T07:31:16.570Z,8.77
2022-08-05T07:34:08.459Z,9.73
2022-08-05T07:36:43.138Z,7.00
2022-08-05T07:40:03.706Z,5.90
2022-08-05T07:42:31.577Z,6.90
2022-08-05T07:45:12.139Z,4.28
2022-08-05T07:50:16.669Z,8.20
2022-08-05T07:52:49.790Z,9.15
2022-08-05T07:56:05.004Z,6.15
2022-08-05T07:58:10.517Z,8.52
2022-08-05T08:01:01.710Z,4.47
2022-08-05T08:03:51.347Z,5.70
2022-08-05T08:06:28.283Z,4.72
2022-08-05T08:08:57.814Z,7.15
2022-08-05T08:11:48.242Z,8.20
2022-08-05T08:14:28.914Z,4.10
2022-08-05T08:17:15.760Z,6.97
2022-08-05T08:20:23.032Z,4.53
2022-08-05T08:22:34.187Z,6.00
2022-08-05T08:25:26.380Z,9.52
2022-08-05T08:28:36.909Z,6.17
2022-08-05T08:31:19.833Z,5.00
2022-08-05T08:34:05.827Z,9.03
2022-08-05T08:37:03.314Z,7.05
2022-08-05T08:39:49.435Z,6.37
2022-08-05T08:45:18.392Z,3.75
2022-08-05T08:48:10.697Z,4.82
2022-08-05T08:51:03.739Z,6.05
2022-08-05T08:53:45.251Z,6.82
2022-08-05T08:56:12.998Z,6.03
2022-08-05T08:58:53.742Z,6.80
2022-08-05T09:01:29.384Z,3.40
2022-08-05T09:04:03.780Z,6.40
2022-08-05T09:06:38.435Z,6.13
2022-08-05T09:09:41.016Z,6.22
2022-08-05T09:12:20.200Z,5.85
2022-08-05T09:14:58.017Z,4.85
2022-08-05T09:17:42.881Z,5.80
2022-08-05T09:20:36.396Z,4.78
2022-08-05T09:26:06.736Z,6.72
2022-08-05T09:29:05.784Z,6.35
2022-08-05T09:32:40.811Z,4.80
2022-08-05T09:34:53.412Z,4.80
2022-08-05T09:38:12.611Z,4.38
2022-08-05T09:40:33.192Z,5.90
2022-08-05T09:43:08.457Z,3.92
2022-08-05T09:46:06.123Z,3.30
2022-08-05T09:49:06.582Z,5.05
2022-08-05T09:51:52.047Z,5.95
2022-08-05T09:54:33.218Z,4.68
2022-08-05T09:57:20.578Z,4.63
2022-08-05T09:59:52.878Z,9.80
2022-08-05T10:02:36.986Z,4.15
2022-08-05T10:05:37.994Z,3.97
2022-08-05T10:08:36.391Z,4.77
2022-08-05T10:11:09.326Z,4.35
2022-08-05T10:13:47.288Z,4.10
2022-08-05T10:16:41.870Z,6.43
2022-08-05T10:22:32.861Z,5.43
2022-08-05T10:25:33.900Z,4.30
2022-08-05T10:28:17.384Z,7.55
2022-08-05T10:32:49.686Z,5.25
2022-08-05T10:33:59.256Z,3.83
2022-08-05T10:36:32.433Z,4.78
2022-08-05T10:39:05.248Z,4.35
2022-08-05T10:44:16.449Z,6.40
2022-08-05T10:47:26.280Z,6.32
2022-08-05T10:50:35.373Z,4.05
2022-08-05T10:56:21.361Z,4.03
2022-08-05T10:58:57.226Z,4.63
2022-08-05T11:01:55.602Z,4.87
2022-08-05T11:04:34.340Z,3.78
2022-08-05T11:07:17.482Z,4.13
2022-08-05T11:10:09.892Z,4.60
2022-08-05T11:13:07.897Z,4.05
2022-08-05T11:16:00.596Z,5.07
2022-08-05T11:21:49.456Z,5.25
2022-08-05T11:24:30.163Z,4.75
2022-08-05T13:31:13.857Z,2.42
2022-08-05T13:50:11.239Z,2.80
2022-08-05T13:59:27.184Z,1.20
2022-08-05T14:04:55.747Z,1.85
2022-08-05T14:08:00.844Z,1.10
2022-08-05T14:10:47.425Z,1.95
2022-08-05T14:20:00.886Z,4.90
2022-08-05T14:22:50.073Z,1.90
2022-08-05T14:25:38.202Z,1.90
2022-08-05T14:32:02.247Z,4.53
2022-08-05T14:35:11.647Z,1.20
2022-08-05T14:37:56.128Z,1.27
2022-08-05T14:43:19.452Z,5.53
2022-08-05T14:55:59.942Z,2.05
2022-08-05T14:59:04.378Z,1.75
2022-08-05T15:01:50.504Z,2.15
2022-08-05T15:08:06.650Z,1.40
2022-08-05T15:10:20.652Z,0.93
2022-08-05T15:13:05.431Z,1.27
2022-08-05T15:15:55.783Z,2.37
2022-08-05T15:19:14.585Z,0.65
2022-08-05T15:22:05.872Z,1.95
2022-08-05T15:28:18.870Z,1.25
2022-08-05T15:30:46.754Z,1.13
2022-08-05T15:34:04.588Z,1.05
2022-08-05T15:36:43.908Z,0.63
2022-08-05T15:48:16.137Z,2.47
2022-08-05T15:50:51.541Z,1.55
2022-08-05T15:53:38.468Z,0.68
2022-08-05T15:56:35.887Z,1.67
2022-08-05T15:59:22.020Z,2.38
2022-08-05T16:02:01.005Z,1.40
2022-08-05T16:04:32.085Z,0.85
2022-08-05T16:07:02.578Z,3.53
2022-08-05T16:09:43.568Z,0.83
2022-08-05T16:12:36.102Z,2.15
2022-08-05T16:15:11.785Z,0.40
2022-08-05T16:17:57.543Z,0.80
2022-08-05T16:20:38.481Z,1.00
2022-08-05T16:23:16.284Z,1.10
2022-08-05T16:25:47.839Z,1.30
2022-08-05T16:28:20.488Z,2.15
2022-08-05T16:30:58.417Z,1.67
2022-08-05T16:33:27.064Z,2.10
2022-08-05T16:36:20.503Z,0.90
2022-08-05T16:42:15.767Z,1.35
2022-08-05T16:46:55.731Z,0.90
2022-08-05T16:49:29.127Z,2.90
2022-08-05T16:51:59.109Z,1.17
2022-08-05T16:54:42.701Z,1.30
2022-08-05T16:57:48.608Z,1.23
2022-08-05T17:00:26.059Z,2.53
2022-08-05T17:03:19.710Z,1.55
2022-08-05T17:05:53.637Z,0.55
2022-08-05T17:08:51.915Z,1.35
2022-08-05T17:11:25.608Z,0.57
2022-08-05T17:14:06.205Z,2.00
2022-08-05T17:16:39.076Z,0.90
2022-08-05T17:19:15.099Z,0.95
2022-08-05T17:21:51.589Z,1.55
